Latest Weather Observations for Parawa West

IDS60901

Issued at 5:41 am CDT Saturday 18 November 2017 (issued every 10 minutes, with the page automatically refreshed every 10 minutes)

About weather observations | Map of Adelaide area stations | Latest observations for Adelaide area | Other Formats
Station Details ID: 023875 Name: SECOND VALLEY FOREST AWS Lat: -35.57 Lon: 138.29 Height: 341.0 m
Data from the previous 72 hours. | See also: Recent months at Parawa West
Date/Time
CDT
Temp
°C
App
Temp
°C
Dew
Point
°C
Rel
Hum
%
Delta-T
°C
Wind Press
QNH
hPa
Press
MSL
hPa
Rain since
9am
mm
Dir  Spd
km/h
Gust
km/h
Spd
kts
Gust
kts
18/05:30am 12.5 12.5 12.5 100 0.0 S 4 6 2 3 1014.7 1014.1 3.4
18/05:00am 12.4 12.0 12.4 100 0.0 S 6 7 3 4 1014.6 1014.0 3.4
18/04:30am 12.4 11.4 12.4 100 0.0 S 9 11 5 6 1014.6 1014.0 3.4
18/04:00am 12.4 11.1 12.4 100 0.0 SSE 11 15 6 8 1014.2 1013.6 3.4
18/03:30am 12.4 11.4 12.4 100 0.0 SSE 9 13 5 7 1014.3 1013.7 3.4
18/03:00am 12.2 10.4 12.2 100 0.0 SSE 13 17 7 9 1014.2 1013.6 3.4
18/02:30am 12.5 10.4 12.5 100 0.0 SSE 15 19 8 10 1014.4 1013.8 3.4
18/02:00am 12.3 10.2 12.3 100 0.0 SSE 15 19 8 10 1014.6 1014.0 3.4
18/01:30am 12.4 10.3 12.4 100 0.0 SSE 15 17 8 9 1015.0 1014.4 3.4
18/01:00am 12.5 10.4 12.5 100 0.0 SSE 15 17 8 9 1015.4 1014.9 3.4
18/12:30am 12.7 11.5 12.7 100 0.0 S 11 15 6 8 1015.7 1015.2 3.4
18/12:00am 12.7 11.5 12.7 100 0.0 SSE 11 15 6 8 1015.7 1015.2 3.4
 
Date/Time
CDT
Temp
°C
App
Temp
°C
Dew
Point
°C
Rel
Hum
%
Delta-T
°C
Wind Press
QNH
hPa
Press
MSL
hPa
Rain since
9am
mm
Dir  Spd
km/h
Gust
km/h
Spd
kts
Gust
kts
17/11:30pm 12.7 11.5 12.7 100 0.0 SSE 11 15 6 8 1015.7 1015.2 3.4
17/11:00pm 12.5 10.8 12.5 100 0.0 SSE 13 19 7 10 1015.5 1015.0 3.4
17/10:30pm 12.7 10.3 12.7 100 0.0 SSE 17 24 9 13 1015.5 1015.0 3.4
17/10:00pm 12.9 10.2 12.9 100 0.0 SSE 19 24 10 13 1015.4 1014.9 3.2
17/09:30pm 12.9 9.6 12.9 100 0.0 SSE 22 32 12 17 1014.9 1014.3 3.2
17/09:00pm 12.9 10.0 12.9 100 0.0 S 20 30 11 16 1014.7 1014.1 3.2
17/08:30pm 13.1 10.3 13.1 100 0.0 S 20 30 11 16 1014.6 1014.0 3.2
17/08:00pm 13.1 9.9 13.1 100 0.0 S 22 33 12 18 1014.7 1014.1 3.2
17/07:30pm 12.9 10.0 12.9 100 0.0 S 20 32 11 17 1014.6 1014.0 3.2
17/07:00pm 13.4 10.7 13.4 100 0.0 S 20 32 11 17 1014.2 1013.6 3.2
17/06:30pm 13.2 9.6 13.2 100 0.0 S 24 35 13 19 1013.7 1013.2 3.2
17/06:00pm 13.5 10.8 13.5 100 0.0 SSW 20 32 11 17 1013.7 1013.2 3.2
17/05:30pm 13.6 9.8 13.6 100 0.0 SSW 26 33 14 18 1013.5 1013.0 3.2
17/05:00pm 13.7 10.3 13.7 100 0.0 SSW 24 35 13 19 1013.5 1013.0 3.2
17/04:30pm 13.9 11.3 13.9 100 0.0 SW 20 32 11 17 1013.8 1013.3 3.2
17/04:00pm 13.7 11.3 13.7 100 0.0 SW 19 30 10 16 1013.9 1013.4 2.8
17/03:30pm 13.8 11.8 13.8 100 0.0 SW 17 24 9 13 1014.0 1013.5 1.6
17/03:00pm 13.6 11.5 13.6 100 0.0 SW 17 32 9 17 1014.0 1013.5 1.4
17/02:30pm 13.8 11.4 13.8 100 0.0 SW 19 28 10 15 1014.3 1013.7 1.2
17/02:00pm 13.9 12.7 13.9 100 0.0 SW 13 24 7 13 1014.0 1013.5 1.2
17/01:30pm 13.8 11.8 13.8 100 0.0 SW 17 26 9 14 1014.2 1013.6 1.2
17/01:00pm 13.6 11.5 13.6 100 0.0 SW 17 24 9 13 1014.2 1013.6 1.0
17/12:30pm 13.8 11.8 13.8 100 0.0 SW 17 26 9 14 1014.2 1013.6 1.0
17/12:00pm 13.5 11.4 13.5 100 0.0 SW 17 26 9 14 1014.2 1013.6 0.8
17/11:30am 13.2 11.4 13.2 100 0.0 SW 15 22 8 12 1014.2 1013.6 0.8
17/11:00am 12.9 10.6 12.9 100 0.0 SW 17 26 9 14 1014.2 1013.6 0.6
17/10:30am 12.8 10.4 12.8 100 0.0 SW 17 28 9 15 1014.4 1013.8 0.6
17/10:00am 12.6 10.2 12.6 100 0.0 SW 17 28 9 15 1014.2 1013.6 0.4
17/09:30am 12.3 10.2 12.3 100 0.0 SW 15 28 8 15 1014.2 1013.6 0.4
17/09:00am 12.1 9.5 12.1 100 0.0 SW 17 30 9 16 1014.0 1013.5 14.6
17/08:30am 11.9 9.3 11.9 100 0.0 SW 17 28 9 15 1013.8 1013.3 14.6
17/08:00am 11.6 8.9 11.6 100 0.0 SW 17 30 9 16 1013.8 1013.3 14.2
17/07:30am 11.5 9.5 11.5 100 0.0 SW 13 20 7 11 1013.6 1013.1 13.6
17/07:00am 11.4 8.6 11.4 100 0.0 SW 17 26 9 14 1013.6 1013.1 12.6
17/06:30am 11.3 8.5 11.3 100 0.0 SSW 17 30 9 16 1013.5 1013.0 11.4
17/06:00am 11.1 7.3 11.1 100 0.0 SSW 22 33 12 18 1013.2 1012.7 11.0
17/05:30am 11.1 6.9 11.1 100 0.0 SSW 24 37 13 20 1013.0 1012.5 10.6
17/05:00am 10.9 5.5 10.9 100 0.0 SSW 30 41 16 22 1012.8 1012.3 10.2
17/04:30am 10.7 6.0 10.7 100 0.0 SSW 26 37 14 20 1012.9 1012.4 9.8
17/04:00am 10.5 5.0 10.5 100 0.0 SSW 30 43 16 23 1013.0 1012.5 9.0
17/03:30am 10.5 5.8 10.5 100 0.0 SSW 26 37 14 20 1013.3 1012.8 8.8
17/03:00am 10.5 6.9 10.5 100 0.0 SSW 20 30 11 16 1013.6 1013.1 8.2
17/02:30am 10.3 6.3 10.3 100 0.0 SSW 22 30 12 16 1013.9 1013.4 8.0
17/02:00am 10.2 6.7 10.2 100 0.0 SW 19 32 10 17 1014.4 1013.8 7.8
17/01:30am 10.2 7.1 10.2 100 0.0 SSW 17 28 9 15 1014.9 1014.3 7.2
17/01:00am 10.1 6.4 10.1 100 0.0 SSW 20 37 11 20 1015.3 1014.8 6.6
17/12:30am 10.2 6.5 10.2 100 0.0 SSW 20 30 11 16 1015.7 1015.2 6.2
17/12:00am 9.9 5.0 9.8 99 0.1 SSW 26 37 14 20 1016.0 1015.5 5.6
 
Date/Time
CDT
Temp
°C
App
Temp
°C
Dew
Point
°C
Rel
Hum
%
Delta-T
°C
Wind Press
QNH
hPa
Press
MSL
hPa
Rain since
9am
mm
Dir  Spd
km/h
Gust
km/h
Spd
kts
Gust
kts
16/11:30pm 10.2 6.4 9.9 98 0.2 SSW 20 32 11 17 1016.1 1015.6 4.8
16/11:00pm 10.1 6.3 9.8 98 0.2 SSW 20 33 11 18 1016.3 1015.8 4.4
16/10:30pm 10.1 5.9 9.6 97 0.3 SSW 22 35 12 19 1016.6 1016.1 4.0
16/10:00pm 10.1 5.1 9.5 96 0.3 SSW 26 43 14 23 1016.6 1016.1 4.0
16/09:30pm 10.0 4.4 8.9 93 0.6 SSW 28 43 15 23 1016.5 1016.0 3.8
16/09:00pm 10.7 5.8 8.6 87 1.1 SSW 24 39 13 21 1016.4 1015.9 3.8
16/08:30pm 10.8 4.7 8.2 84 1.3 SSW 30 43 16 23 1016.3 1015.8 3.8
16/08:00pm 10.7 5.3 7.9 83 1.4 S 26 39 14 21 1016.3 1015.8 3.8
16/07:30pm 10.8 4.6 7.9 82 1.4 SSW 30 44 16 24 1016.0 1015.5 3.8
16/07:00pm 10.9 3.8 8.1 83 1.4 S 35 46 19 25 1015.9 1015.4 3.8
16/06:44pm 10.9 4.4 8.3 84 1.3 S 32 50 17 27 1015.7 1015.2 3.8
16/06:30pm 10.9 4.8 8.3 84 1.3 S 30 43 16 23 1015.7 1015.2 3.8
16/06:00pm 11.8 6.5 8.6 81 1.6 SSW 26 41 14 22 1015.9 1015.4 3.8
16/05:30pm 11.5 5.1 8.5 82 1.5 S 32 46 17 25 1015.9 1015.4 3.8
16/05:00pm 11.4 6.2 9.0 85 1.2 SSW 26 39 14 21 1016.1 1015.6 3.8
16/04:30pm 11.3 4.9 9.2 87 1.1 SSW 33 43 18 23 1016.2 1015.7 3.8
16/04:11pm 11.6 6.3 9.7 88 1.0 SSW 28 46 15 25 1016.2 1015.7 3.8
16/04:00pm 11.7 6.4 9.9 89 0.9 SSW 28 39 15 21 1016.3 1015.8 3.8
16/03:30pm 11.2 6.2 9.6 90 0.8 SSW 26 39 14 21 1016.6 1016.1 3.8
16/03:00pm 11.1 6.6 9.9 92 0.6 SSW 24 33 13 18 1016.8 1016.3 3.8
16/02:30pm 11.0 6.2 10.2 95 0.4 SSW 26 39 14 21 1017.0 1016.5 3.8
16/02:00pm 11.1 5.5 10.3 95 0.4 SSW 30 39 16 21 1017.4 1016.8 3.6
16/01:30pm 11.4 6.7 10.8 96 0.3 SSW 26 35 14 19 1017.5 1016.9 3.4
16/01:00pm 11.1 6.4 10.6 97 0.3 S 26 37 14 20 1017.7 1017.1 3.4
16/12:30pm 11.0 7.4 10.7 98 0.2 S 20 32 11 17 1017.8 1017.3 3.2
16/12:00pm 10.9 6.9 10.4 97 0.3 S 22 37 12 20 1017.9 1017.4 2.6
16/11:30am 11.1 6.4 10.6 97 0.3 S 26 37 14 20 1017.9 1017.4 1.8
16/11:00am 11.4 6.5 10.0 91 0.7 S 26 37 14 20 1017.9 1017.4 1.0
16/10:30am 10.9 7.2 10.0 94 0.5 SSW 20 28 11 15 1017.9 1017.4 1.0
16/10:00am 10.6 6.5 10.1 97 0.3 SSW 22 32 12 17 1018.0 1017.5 1.0
16/09:30am 10.6 6.1 10.1 97 0.3 SSW 24 39 13 21 1017.9 1017.4 0.4
16/09:00am 11.0 6.1 10.1 94 0.5 S 26 41 14 22 1017.8 1017.3 7.0
16/08:30am 10.9 6.0 10.1 95 0.4 S 26 39 14 21 1017.8 1017.3 7.0
16/08:00am 10.8 7.0 9.9 94 0.5 S 20 30 11 16 1017.7 1017.1 7.0
16/07:30am 10.5 5.6 9.9 96 0.3 S 26 35 14 19 1017.5 1016.9 7.0
16/07:00am 9.9 5.9 9.1 95 0.4 SSW 20 32 11 17 1017.3 1016.7 6.8
16/06:30am 10.5 5.1 9.4 93 0.6 S 28 41 15 22 1016.9 1016.4 6.8
16/06:00am 10.5 4.9 8.9 90 0.8 S 28 41 15 22 1016.4 1015.9 6.8
16/05:30am 10.5 5.0 9.1 91 0.7 S 28 39 15 21 1015.9 1015.4 6.8
16/05:00am 10.8 4.8 8.7 87 1.1 S 30 44 16 24 1015.5 1015.0 6.8
16/04:30am 10.5 4.2 8.8 89 0.9 S 32 46 17 25 1015.5 1015.0 6.8
16/04:20am 10.8 4.9 9.1 89 0.9 S 30 48 16 26 1015.5 1015.0 6.8
16/04:00am 10.6 5.0 8.7 88 1.0 S 28 41 15 22 1015.6 1015.1 6.8
16/03:30am 10.6 4.3 8.9 89 0.9 S 32 41 17 22 1015.6 1015.1 6.8
16/03:00am 10.5 4.6 7.7 83 1.4 S 28 37 15 20 1015.8 1015.3 6.8
16/02:30am 10.5 5.2 8.4 87 1.0 S 26 39 14 21 1015.9 1015.4 6.8
16/02:00am 10.5 4.6 7.7 83 1.4 S 28 37 15 20 1016.2 1015.7 6.8
16/01:30am 10.4 4.9 7.6 83 1.4 S 26 33 14 18 1016.8 1016.3 6.8
16/01:00am 10.9 5.6 8.3 84 1.3 S 26 35 14 19 1017.1 1016.6 6.8
16/12:30am 10.9 5.0 9.0 88 1.0 S 30 41 16 22 1017.5 1016.9 6.8
16/12:00am 11.0 5.3 9.8 92 0.6 S 30 39 16 21 1017.3 1016.7 6.8
 
Date/Time
CDT
Temp
°C
App
Temp
°C
Dew
Point
°C
Rel
Hum
%
Delta-T
°C
Wind Press
QNH
hPa
Press
MSL
hPa
Rain since
9am
mm
Dir  Spd
km/h
Gust
km/h
Spd
kts
Gust
kts
15/11:30pm 11.1 5.5 10.0 93 0.6 S 30 43 16 23 1017.4 1016.8 6.8
15/11:00pm 11.1 4.9 10.2 94 0.5 S 33 44 18 24 1017.3 1016.7 6.8
15/10:30pm 11.2 5.3 10.6 96 0.3 S 32 44 17 24 1017.3 1016.7 6.8
15/10:00pm 11.2 5.5 11.0 99 0.1 S 32 43 17 23 1017.0 1016.5 6.8
15/09:57pm 11.2 5.5 11.0 99 0.1 S 32 50 17 27 1017.0 1016.5 6.8
15/09:30pm 11.2 4.9 11.2 100 0.0 S 35 50 19 27 1016.7 1016.2 6.6
15/09:00pm 11.3 5.1 11.3 100 0.0 S 35 52 19 28 1016.5 1016.0 6.0
15/08:30pm 11.4 4.8 11.4 100 0.0 S 37 54 20 29 1016.3 1015.8 6.0
15/08:00pm 11.4 4.8 11.4 100 0.0 S 37 50 20 27 1016.0 1015.5 5.4
15/07:30pm 11.5 4.9 11.5 100 0.0 S 37 50 20 27 1015.7 1015.2 5.4
15/07:14pm 11.6 5.8 11.6 100 0.0 S 33 54 18 29 1015.6 1015.1 5.2
15/07:00pm 11.6 5.8 11.6 100 0.0 S 33 44 18 24 1015.5 1015.0 5.0
15/06:30pm 11.5 5.7 11.5 100 0.0 SSW 33 50 18 27 1015.1 1014.5 5.0
15/06:00pm 11.7 6.2 11.7 100 0.0 SSW 32 48 17 26 1015.3 1014.8 4.8
15/05:48pm 11.8 6.3 11.8 100 0.0 S 32 50 17 27 1015.4 1014.9 4.8
15/05:30pm 11.8 6.7 11.8 100 0.0 SSW 30 43 16 23 1015.4 1014.9 4.8
15/05:00pm 12.1 7.4 12.1 100 0.0 SSW 28 43 15 23 1015.2 1014.7 4.4
15/04:30pm 12.0 7.3 12.0 100 0.0 SSW 28 41 15 22 1015.0 1014.4 4.2
15/04:00pm 12.3 7.7 12.3 100 0.0 SSW 28 43 15 23 1014.5 1013.9 4.0
15/03:30pm 12.3 7.7 12.3 100 0.0 SSW 28 39 15 21 1014.4 1013.8 3.2
15/03:00pm 12.3 7.3 12.3 100 0.0 SSW 30 41 16 22 1014.2 1013.6 2.2
15/02:30pm 12.5 7.0 12.5 100 0.0 S 33 46 18 25 1013.7 1013.2 2.0
15/02:00pm 12.4 7.1 12.4 100 0.0 S 32 48 17 26 1013.6 1013.1 2.0
15/01:53pm 12.7 7.8 12.7 100 0.0 S 30 48 16 26 1013.8 1013.3 2.0
15/01:30pm 12.8 8.0 12.8 100 0.0 S 30 44 16 24 1013.8 1013.3 2.0
15/01:00pm 12.9 7.5 12.9 100 0.0 S 33 48 18 26 1013.6 1013.1 2.0
15/12:53pm 12.8 8.0 12.8 100 0.0 S 30 48 16 26 1013.5 1013.0 2.0
15/12:30pm 13.2 8.1 13.2 100 0.0 S 32 44 17 24 1013.1 1012.6 2.0
15/12:00pm 13.3 8.3 13.3 100 0.0 S 32 43 17 23 1013.5 1013.0 1.8
15/11:30am 13.3 8.3 13.3 100 0.0 SSW 32 44 17 24 1013.3 1012.8 1.4
15/11:00am 13.3 8.3 13.3 100 0.0 SSW 32 46 17 25 1013.2 1012.7 1.2
15/10:30am 13.7 9.6 13.7 100 0.0 S 28 35 15 19 1013.3 1012.8 0.8
15/10:00am 13.7 9.6 13.7 100 0.0 S 28 35 15 19 1013.0 1012.5 0.2
15/09:30am 14.3 10.7 14.3 100 0.0 S 26 35 14 19 1012.8 1012.3 0.0
15/09:00am 14.4 11.6 14.4 100 0.0 S 22 30 12 16 1012.8 1012.3 5.0
15/08:30am 14.4 11.6 14.4 100 0.0 S 22 32 12 17 1012.4 1011.8 4.8
15/08:00am 15.0 12.8 15.0 100 0.0 S 20 26 11 14 1012.1 1011.5 4.6
15/07:30am 14.8 12.7 14.8 100 0.0 S 19 24 10 13 1012.0 1011.4 4.6
15/07:00am 14.8 13.1 14.8 100 0.0 SSW 17 24 9 13 1011.9 1011.3 4.6
15/06:30am 15.6 16.1 15.6 100 0.0 WSW 7 15 4 8 1011.8 1011.2 4.6
15/06:00am 15.7 16.4 15.5 99 0.1 WNW 6 7 3 4 1011.7 1011.1 2.6

Latest Capital City Observations: Canberra | Sydney | Melbourne | Brisbane | Adelaide | Perth | Hobart | Darwin

Other Formats:

Comma delimited format used in spreadsheet applications
http://www.bom.gov.au/fwo/IDS60901/IDS60901.94811.axf

JavaScript Object Notation format (JSON) in row-major order
http://www.bom.gov.au/fwo/IDS60901/IDS60901.94811.json